sensor_id;sensor_type;location;lat;lon;timestamp;temperature;humidity
26589;DHT22;14235;48.532;8.722;2023-03-14T00:02:06;11.80;99.90
26589;DHT22;14235;48.532;8.722;2023-03-14T00:04:32;11.50;99.90
26589;DHT22;14235;48.532;8.722;2023-03-14T00:06:58;11.50;99.90
26589;DHT22;14235;48.532;8.722;2023-03-14T00:09:23;11.60;99.90
26589;DHT22;14235;48.532;8.722;2023-03-14T00:11:49;11.50;99.90
26589;DHT22;14235;48.532;8.722;2023-03-14T00:14:14;11.70;99.90
26589;DHT22;14235;48.532;8.722;2023-03-14T00:16:42;11.70;99.90
26589;DHT22;14235;48.532;8.722;2023-03-14T00:19:10;11.80;99.90
26589;DHT22;14235;48.532;8.722;2023-03-14T00:21:36;11.70;99.90
26589;DHT22;14235;48.532;8.722;2023-03-14T00:24:01;11.70;99.90
26589;DHT22;14235;48.532;8.722;2023-03-14T00:26:27;11.70;99.90
26589;DHT22;14235;48.532;8.722;2023-03-14T00:28:54;11.70;99.90
26589;DHT22;14235;48.532;8.722;2023-03-14T00:31:19;11.80;99.90
26589;DHT22;14235;48.532;8.722;2023-03-14T00:33:45;11.80;99.90
26589;DHT22;14235;48.532;8.722;2023-03-14T00:36:16;11.90;99.90
26589;DHT22;14235;48.532;8.722;2023-03-14T00:38:44;11.80;99.90
26589;DHT22;14235;48.532;8.722;2023-03-14T00:41:15;11.80;99.90
26589;DHT22;14235;48.532;8.722;2023-03-14T00:43:41;11.80;99.90
26589;DHT22;14235;48.532;8.722;2023-03-14T00:46:07;11.70;99.90
26589;DHT22;14235;48.532;8.722;2023-03-14T00:48:33;11.70;99.90
26589;DHT22;14235;48.532;8.722;2023-03-14T00:50:59;11.40;99.90
26589;DHT22;14235;48.532;8.722;2023-03-14T00:53:24;11.40;99.90
26589;DHT22;14235;48.532;8.722;2023-03-14T00:55:50;11.60;99.90
26589;DHT22;14235;48.532;8.722;2023-03-14T00:58:17;11.40;99.90
26589;DHT22;14235;48.532;8.722;2023-03-14T01:00:44;11.40;99.90
26589;DHT22;14235;48.532;8.722;2023-03-14T01:03:11;11.60;99.90
26589;DHT22;14235;48.532;8.722;2023-03-14T01:05:37;11.50;99.90
26589;DHT22;14235;48.532;8.722;2023-03-14T01:08:04;11.50;99.90
26589;DHT22;14235;48.532;8.722;2023-03-14T01:10:30;11.60;99.90
26589;DHT22;14235;48.532;8.722;2023-03-14T01:12:56;11.60;99.90
26589;DHT22;14235;48.532;8.722;2023-03-14T01:15:21;11.50;99.90
26589;DHT22;14235;48.532;8.722;2023-03-14T01:17:47;11.50;99.90
26589;DHT22;14235;48.532;8.722;2023-03-14T01:20:14;11.40;99.90
26589;DHT22;14235;48.532;8.722;2023-03-14T01:22:41;11.50;99.90
26589;DHT22;14235;48.532;8.722;2023-03-14T01:25:09;11.50;99.90
26589;DHT22;14235;48.532;8.722;2023-03-14T01:27:35;11.50;99.90
26589;DHT22;14235;48.532;8.722;2023-03-14T01:30:00;11.40;99.90
26589;DHT22;14235;48.532;8.722;2023-03-14T01:32:26;11.60;99.90
26589;DHT22;14235;48.532;8.722;2023-03-14T01:34:51;11.50;99.90
26589;DHT22;14235;48.532;8.722;2023-03-14T01:37:17;11.60;99.90
26589;DHT22;14235;48.532;8.722;2023-03-14T01:39:43;11.70;99.90
26589;DHT22;14235;48.532;8.722;2023-03-14T01:42:09;11.60;99.90
26589;DHT22;14235;48.532;8.722;2023-03-14T01:44:52;11.60;99.90
26589;DHT22;14235;48.532;8.722;2023-03-14T01:47:19;11.60;99.90
26589;DHT22;14235;48.532;8.722;2023-03-14T01:49:47;11.60;99.90
26589;DHT22;14235;48.532;8.722;2023-03-14T01:52:42;11.50;99.90
26589;DHT22;14235;48.532;8.722;2023-03-14T01:55:15;11.60;99.90
26589;DHT22;14235;48.532;8.722;2023-03-14T01:57:45;11.60;99.90
26589;DHT22;14235;48.532;8.722;2023-03-14T02:00:15;11.60;99.90
26589;DHT22;14235;48.532;8.722;2023-03-14T02:02:46;11.60;99.90
26589;DHT22;14235;48.532;8.722;2023-03-14T02:05:16;11.60;99.90
26589;DHT22;14235;48.532;8.722;2023-03-14T02:07:56;11.50;99.90
26589;DHT22;14235;48.532;8.722;2023-03-14T02:10:27;11.70;99.90
26589;DHT22;14235;48.532;8.722;2023-03-14T02:12:55;11.50;99.90
26589;DHT22;14235;48.532;8.722;2023-03-14T02:15:22;11.50;99.90
26589;DHT22;14235;48.532;8.722;2023-03-14T02:17:48;11.50;99.90
26589;DHT22;14235;48.532;8.722;2023-03-14T02:22:44;11.60;99.90
26589;DHT22;14235;48.532;8.722;2023-03-14T02:25:17;11.50;99.90
26589;DHT22;14235;48.532;8.722;2023-03-14T02:27:45;11.50;99.90
26589;DHT22;14235;48.532;8.722;2023-03-14T02:30:19;11.50;99.90
26589;DHT22;14235;48.532;8.722;2023-03-14T02:35:27;11.40;99.90
26589;DHT22;14235;48.532;8.722;2023-03-14T02:37:55;11.30;99.90
26589;DHT22;14235;48.532;8.722;2023-03-14T02:40:22;11.40;99.90
26589;DHT22;14235;48.532;8.722;2023-03-14T02:42:48;11.30;99.90
26589;DHT22;14235;48.532;8.722;2023-03-14T02:47:43;11.30;99.90
26589;DHT22;14235;48.532;8.722;2023-03-14T02:50:14;11.10;99.90
26589;DHT22;14235;48.532;8.722;2023-03-14T02:52:41;11.20;99.90
26589;DHT22;14235;48.532;8.722;2023-03-14T02:55:07;11.30;99.90
26589;DHT22;14235;48.532;8.722;2023-03-14T02:57:32;11.20;99.90
26589;DHT22;14235;48.532;8.722;2023-03-14T02:59:59;11.10;99.90
26589;DHT22;14235;48.532;8.722;2023-03-14T03:02:25;11.20;99.90
26589;DHT22;14235;48.532;8.722;2023-03-14T03:04:51;11.10;99.90
26589;DHT22;14235;48.532;8.722;2023-03-14T03:07:16;11.20;99.90
26589;DHT22;14235;48.532;8.722;2023-03-14T03:09:42;11.00;99.90
26589;DHT22;14235;48.532;8.722;2023-03-14T03:12:08;11.30;99.90
26589;DHT22;14235;48.532;8.722;2023-03-14T03:14:33;11.00;99.90
26589;DHT22;14235;48.532;8.722;2023-03-14T03:16:59;11.00;99.90
26589;DHT22;14235;48.532;8.722;2023-03-14T03:19:24;11.00;99.90
26589;DHT22;14235;48.532;8.722;2023-03-14T03:21:50;11.00;99.90
26589;DHT22;14235;48.532;8.722;2023-03-14T03:24:15;10.90;99.90
26589;DHT22;14235;48.532;8.722;2023-03-14T03:26:41;11.00;99.90
26589;DHT22;14235;48.532;8.722;2023-03-14T03:29:06;10.90;99.90
26589;DHT22;14235;48.532;8.722;2023-03-14T03:31:32;10.90;99.90
26589;DHT22;14235;48.532;8.722;2023-03-14T03:33:57;10.80;99.90
26589;DHT22;14235;48.532;8.722;2023-03-14T03:36:24;10.90;99.90
26589;DHT22;14235;48.532;8.722;2023-03-14T03:38:50;10.90;99.90
26589;DHT22;14235;48.532;8.722;2023-03-14T03:41:16;10.80;99.90
26589;DHT22;14235;48.532;8.722;2023-03-14T03:43:42;10.80;99.90
26589;DHT22;14235;48.532;8.722;2023-03-14T03:46:07;10.80;99.90
26589;DHT22;14235;48.532;8.722;2023-03-14T03:48:34;10.70;99.90
26589;DHT22;14235;48.532;8.722;2023-03-14T03:51:00;10.70;99.90
26589;DHT22;14235;48.532;8.722;2023-03-14T03:53:26;10.80;99.90
26589;DHT22;14235;48.532;8.722;2023-03-14T03:55:52;10.70;99.90
26589;DHT22;14235;48.532;8.722;2023-03-14T03:58:18;10.60;99.90
26589;DHT22;14235;48.532;8.722;2023-03-14T04:00:43;10.60;99.90
26589;DHT22;14235;48.532;8.722;2023-03-14T04:03:09;10.70;99.90
26589;DHT22;14235;48.532;8.722;2023-03-14T04:05:35;10.60;99.90
26589;DHT22;14235;48.532;8.722;2023-03-14T04:08:00;10.50;99.90
26589;DHT22;14235;48.532;8.722;2023-03-14T04:10:26;10.40;99.90
26589;DHT22;14235;48.532;8.722;2023-03-14T04:12:52;10.50;99.90
26589;DHT22;14235;48.532;8.722;2023-03-14T04:15:18;10.60;99.90
26589;DHT22;14235;48.532;8.722;2023-03-14T04:17:43;10.60;99.90
26589;DHT22;14235;48.532;8.722;2023-03-14T04:20:10;10.70;99.90
26589;DHT22;14235;48.532;8.722;2023-03-14T04:22:39;10.60;99.90
26589;DHT22;14235;48.532;8.722;2023-03-14T04:25:05;10.50;99.90
26589;DHT22;14235;48.532;8.722;2023-03-14T04:27:31;10.60;99.90
26589;DHT22;14235;48.532;8.722;2023-03-14T04:29:57;10.50;99.90
26589;DHT22;14235;48.532;8.722;2023-03-14T04:32:22;10.50;99.90
26589;DHT22;14235;48.532;8.722;2023-03-14T04:34:48;10.50;99.90
26589;DHT22;14235;48.532;8.722;2023-03-14T04:37:13;10.50;99.90
26589;DHT22;14235;48.532;8.722;2023-03-14T04:39:39;10.50;99.90
26589;DHT22;14235;48.532;8.722;2023-03-14T04:42:05;11.00;99.90
26589;DHT22;14235;48.532;8.722;2023-03-14T04:44:31;10.50;99.90
26589;DHT22;14235;48.532;8.722;2023-03-14T04:46:56;10.60;99.90
26589;DHT22;14235;48.532;8.722;2023-03-14T04:49:22;10.40;99.90
26589;DHT22;14235;48.532;8.722;2023-03-14T04:51:48;10.40;99.90
26589;DHT22;14235;48.532;8.722;2023-03-14T04:54:13;10.20;99.90
26589;DHT22;14235;48.532;8.722;2023-03-14T04:56:39;10.30;99.90
26589;DHT22;14235;48.532;8.722;2023-03-14T04:59:04;10.40;99.90
26589;DHT22;14235;48.532;8.722;2023-03-14T05:01:30;10.40;99.90
26589;DHT22;14235;48.532;8.722;2023-03-14T05:03:56;10.40;99.90
26589;DHT22;14235;48.532;8.722;2023-03-14T05:06:21;10.40;99.90
26589;DHT22;14235;48.532;8.722;2023-03-14T05:08:47;10.40;99.90
26589;DHT22;14235;48.532;8.722;2023-03-14T05:11:13;10.40;99.90
26589;DHT22;14235;48.532;8.722;2023-03-14T05:13:39;10.40;99.90
26589;DHT22;14235;48.532;8.722;2023-03-14T05:16:07;10.40;99.90
26589;DHT22;14235;48.532;8.722;2023-03-14T05:18:33;10.40;99.90
26589;DHT22;14235;48.532;8.722;2023-03-14T05:20:58;10.40;99.90
26589;DHT22;14235;48.532;8.722;2023-03-14T05:23:24;10.40;99.90
26589;DHT22;14235;48.532;8.722;2023-03-14T05:25:50;10.50;99.90
26589;DHT22;14235;48.532;8.722;2023-03-14T05:28:15;10.40;99.90
26589;DHT22;14235;48.532;8.722;2023-03-14T05:30:41;10.40;99.90
26589;DHT22;14235;48.532;8.722;2023-03-14T05:33:07;10.40;99.90
26589;DHT22;14235;48.532;8.722;2023-03-14T05:35:33;10.30;99.90
26589;DHT22;14235;48.532;8.722;2023-03-14T05:37:59;10.30;99.90
26589;DHT22;14235;48.532;8.722;2023-03-14T05:40:25;10.30;99.90
26589;DHT22;14235;48.532;8.722;2023-03-14T05:42:50;10.40;99.90
26589;DHT22;14235;48.532;8.722;2023-03-14T05:45:17;10.40;99.90
26589;DHT22;14235;48.532;8.722;2023-03-14T05:47:43;10.30;99.90
26589;DHT22;14235;48.532;8.722;2023-03-14T05:50:09;10.30;99.90
26589;DHT22;14235;48.532;8.722;2023-03-14T05:52:35;10.40;99.90
26589;DHT22;14235;48.532;8.722;2023-03-14T05:55:01;10.40;99.90
26589;DHT22;14235;48.532;8.722;2023-03-14T05:57:26;10.30;99.90
26589;DHT22;14235;48.532;8.722;2023-03-14T05:59:52;10.30;99.90
26589;DHT22;14235;48.532;8.722;2023-03-14T06:02:17;10.30;99.90
26589;DHT22;14235;48.532;8.722;2023-03-14T06:04:43;10.20;99.90
26589;DHT22;14235;48.532;8.722;2023-03-14T06:07:09;10.20;99.90
26589;DHT22;14235;48.532;8.722;2023-03-14T06:09:34;10.20;99.90
26589;DHT22;14235;48.532;8.722;2023-03-14T06:12:00;10.20;99.90
26589;DHT22;14235;48.532;8.722;2023-03-14T06:16:51;10.20;99.90
26589;DHT22;14235;48.532;8.722;2023-03-14T06:19:18;10.20;99.90
26589;DHT22;14235;48.532;8.722;2023-03-14T06:24:09;10.30;99.90
26589;DHT22;14235;48.532;8.722;2023-03-14T06:26:35;10.20;99.90
26589;DHT22;14235;48.532;8.722;2023-03-14T06:29:03;10.30;99.90
26589;DHT22;14235;48.532;8.722;2023-03-14T06:31:33;10.30;99.90
26589;DHT22;14235;48.532;8.722;2023-03-14T06:33:59;10.30;99.90
26589;DHT22;14235;48.532;8.722;2023-03-14T06:36:24;10.30;99.90
26589;DHT22;14235;48.532;8.722;2023-03-14T06:38:50;11.50;99.90
26589;DHT22;14235;48.532;8.722;2023-03-14T06:41:15;10.40;99.90
26589;DHT22;14235;48.532;8.722;2023-03-14T06:43:41;10.30;99.90
26589;DHT22;14235;48.532;8.722;2023-03-14T06:46:07;10.90;99.90
26589;DHT22;14235;48.532;8.722;2023-03-14T06:48:32;10.30;99.90
26589;DHT22;14235;48.532;8.722;2023-03-14T06:50:58;10.50;99.90
26589;DHT22;14235;48.532;8.722;2023-03-14T06:53:23;10.20;99.90
26589;DHT22;14235;48.532;8.722;2023-03-14T06:55:49;10.30;99.90
26589;DHT22;14235;48.532;8.722;2023-03-14T06:58:15;10.70;99.90
26589;DHT22;14235;48.532;8.722;2023-03-14T07:00:40;11.20;99.90
26589;DHT22;14235;48.532;8.722;2023-03-14T07:03:06;10.30;99.90
26589;DHT22;14235;48.532;8.722;2023-03-14T07:05:32;10.30;99.90
26589;DHT22;14235;48.532;8.722;2023-03-14T07:07:57;10.50;99.90
26589;DHT22;14235;48.532;8.722;2023-03-14T07:10:23;10.40;99.90
26589;DHT22;14235;48.532;8.722;2023-03-14T07:12:48;10.40;99.90
26589;DHT22;14235;48.532;8.722;2023-03-14T07:15:14;11.70;99.90
26589;DHT22;14235;48.532;8.722;2023-03-14T07:17:40;11.40;99.90
26589;DHT22;14235;48.532;8.722;2023-03-14T07:20:06;10.30;99.90
26589;DHT22;14235;48.532;8.722;2023-03-14T07:22:32;10.50;99.90
26589;DHT22;14235;48.532;8.722;2023-03-14T07:24:58;10.60;99.90
26589;DHT22;14235;48.532;8.722;2023-03-14T07:27:23;10.50;99.90
26589;DHT22;14235;48.532;8.722;2023-03-14T07:29:49;10.90;99.90
26589;DHT22;14235;48.532;8.722;2023-03-14T07:32:15;11.00;99.90
26589;DHT22;14235;48.532;8.722;2023-03-14T07:34:41;10.50;99.90
26589;DHT22;14235;48.532;8.722;2023-03-14T07:37:07;10.80;99.90
26589;DHT22;14235;48.532;8.722;2023-03-14T07:39:33;10.70;99.90
26589;DHT22;14235;48.532;8.722;2023-03-14T07:41:59;10.80;99.90
26589;DHT22;14235;48.532;8.722;2023-03-14T07:44:25;10.90;99.90
26589;DHT22;14235;48.532;8.722;2023-03-14T07:46:50;10.80;99.90
26589;DHT22;14235;48.532;8.722;2023-03-14T07:49:16;10.90;99.90
26589;DHT22;14235;48.532;8.722;2023-03-14T07:51:41;12.60;99.90
26589;DHT22;14235;48.532;8.722;2023-03-14T07:54:09;11.10;99.90
26589;DHT22;14235;48.532;8.722;2023-03-14T07:56:35;12.30;99.90
26589;DHT22;14235;48.532;8.722;2023-03-14T07:59:00;11.00;99.90
26589;DHT22;14235;48.532;8.722;2023-03-14T08:01:26;11.10;99.90
26589;DHT22;14235;48.532;8.722;2023-03-14T08:03:52;10.90;99.90
26589;DHT22;14235;48.532;8.722;2023-03-14T08:06:18;11.20;99.90
26589;DHT22;14235;48.532;8.722;2023-03-14T08:08:43;11.30;99.90
26589;DHT22;14235;48.532;8.722;2023-03-14T08:11:09;12.80;99.90
26589;DHT22;14235;48.532;8.722;2023-03-14T08:13:36;11.50;99.90
26589;DHT22;14235;48.532;8.722;2023-03-14T08:16:01;11.30;99.90
26589;DHT22;14235;48.532;8.722;2023-03-14T08:18:27;11.50;99.90
26589;DHT22;14235;48.532;8.722;2023-03-14T08:20:52;11.50;99.90
26589;DHT22;14235;48.532;8.722;2023-03-14T08:23:18;11.50;99.90
26589;DHT22;14235;48.532;8.722;2023-03-14T08:25:44;11.40;99.90
26589;DHT22;14235;48.532;8.722;2023-03-14T08:28:09;11.40;99.90
26589;DHT22;14235;48.532;8.722;2023-03-14T08:30:35;11.40;99.90
26589;DHT22;14235;48.532;8.722;2023-03-14T08:33:01;12.10;99.90
26589;DHT22;14235;48.532;8.722;2023-03-14T08:35:27;11.50;99.90
26589;DHT22;14235;48.532;8.722;2023-03-14T08:37:53;11.20;99.90
26589;DHT22;14235;48.532;8.722;2023-03-14T08:40:19;11.30;99.90
26589;DHT22;14235;48.532;8.722;2023-03-14T08:42:45;11.20;99.90
26589;DHT22;14235;48.532;8.722;2023-03-14T08:45:13;12.50;99.90
26589;DHT22;14235;48.532;8.722;2023-03-14T08:47:39;10.90;99.90
26589;DHT22;14235;48.532;8.722;2023-03-14T08:50:05;11.20;99.90
26589;DHT22;14235;48.532;8.722;2023-03-14T08:52:32;11.20;99.90
26589;DHT22;14235;48.532;8.722;2023-03-14T08:54:58;11.10;99.90
26589;DHT22;14235;48.532;8.722;2023-03-14T08:57:24;11.20;99.90
26589;DHT22;14235;48.532;8.722;2023-03-14T08:59:53;12.00;99.90
26589;DHT22;14235;48.532;8.722;2023-03-14T09:02:20;12.70;99.90
26589;DHT22;14235;48.532;8.722;2023-03-14T09:04:45;11.20;99.90
26589;DHT22;14235;48.532;8.722;2023-03-14T09:07:11;11.40;99.90
26589;DHT22;14235;48.532;8.722;2023-03-14T09:09:37;11.30;99.90
26589;DHT22;14235;48.532;8.722;2023-03-14T09:12:02;11.30;99.90
26589;DHT22;14235;48.532;8.722;2023-03-14T09:14:28;11.40;99.90
26589;DHT22;14235;48.532;8.722;2023-03-14T09:16:54;11.70;99.90
26589;DHT22;14235;48.532;8.722;2023-03-14T09:19:20;11.50;99.90
26589;DHT22;14235;48.532;8.722;2023-03-14T09:21:46;11.50;99.90
26589;DHT22;14235;48.532;8.722;2023-03-14T09:24:12;11.60;99.90
26589;DHT22;14235;48.532;8.722;2023-03-14T09:26:37;11.50;99.90
26589;DHT22;14235;48.532;8.722;2023-03-14T09:29:03;11.70;99.90
26589;DHT22;14235;48.532;8.722;2023-03-14T09:31:29;11.60;99.90
26589;DHT22;14235;48.532;8.722;2023-03-14T09:33:55;11.50;99.90
26589;DHT22;14235;48.532;8.722;2023-03-14T09:36:20;11.50;99.90
26589;DHT22;14235;48.532;8.722;2023-03-14T09:38:46;11.80;99.90
26589;DHT22;14235;48.532;8.722;2023-03-14T09:41:22;11.50;99.90
26589;DHT22;14235;48.532;8.722;2023-03-14T09:43:50;11.50;99.90
26589;DHT22;14235;48.532;8.722;2023-03-14T09:46:20;11.30;99.90
26589;DHT22;14235;48.532;8.722;2023-03-14T09:48:46;11.40;99.90
26589;DHT22;14235;48.532;8.722;2023-03-14T09:51:17;11.30;99.90
26589;DHT22;14235;48.532;8.722;2023-03-14T09:53:47;12.90;99.90
26589;DHT22;14235;48.532;8.722;2023-03-14T09:56:33;11.40;99.90
26589;DHT22;14235;48.532;8.722;2023-03-14T09:59:03;12.10;99.90
26589;DHT22;14235;48.532;8.722;2023-03-14T10:01:32;11.70;99.90
26589;DHT22;14235;48.532;8.722;2023-03-14T10:04:09;11.70;99.90
26589;DHT22;14235;48.532;8.722;2023-03-14T10:06:35;11.70;99.90
26589;DHT22;14235;48.532;8.722;2023-03-14T10:09:02;11.80;99.90
26589;DHT22;14235;48.532;8.722;2023-03-14T10:11:29;11.70;99.90
26589;DHT22;14235;48.532;8.722;2023-03-14T10:14:09;11.80;99.90
26589;DHT22;14235;48.532;8.722;2023-03-14T10:16:40;11.70;99.90
26589;DHT22;14235;48.532;8.722;2023-03-14T10:19:14;11.80;99.90
26589;DHT22;14235;48.532;8.722;2023-03-14T10:21:42;11.80;99.90
26589;DHT22;14235;48.532;8.722;2023-03-14T10:26:54;12.00;99.90
26589;DHT22;14235;48.532;8.722;2023-03-14T10:29:23;12.00;99.90
26589;DHT22;14235;48.532;8.722;2023-03-14T10:32:06;12.00;99.90
26589;DHT22;14235;48.532;8.722;2023-03-14T10:34:38;12.00;99.90
26589;DHT22;14235;48.532;8.722;2023-03-14T10:37:17;12.10;99.90
26589;DHT22;14235;48.532;8.722;2023-03-14T10:39:52;12.20;99.90
26589;DHT22;14235;48.532;8.722;2023-03-14T10:42:25;12.00;99.90
26589;DHT22;14235;48.532;8.722;2023-03-14T10:44:57;11.90;99.90
26589;DHT22;14235;48.532;8.722;2023-03-14T10:47:26;11.90;99.90
26589;DHT22;14235;48.532;8.722;2023-03-14T10:49:53;11.90;99.90
26589;DHT22;14235;48.532;8.722;2023-03-14T10:52:25;12.40;99.90
26589;DHT22;14235;48.532;8.722;2023-03-14T10:55:03;11.90;99.90
26589;DHT22;14235;48.532;8.722;2023-03-14T10:57:29;12.00;99.90
26589;DHT22;14235;48.532;8.722;2023-03-14T11:02:42;12.10;99.90
26589;DHT22;14235;48.532;8.722;2023-03-14T11:08:11;11.80;99.90
26589;DHT22;14235;48.532;8.722;2023-03-14T11:10:44;12.20;99.90
26589;DHT22;14235;48.532;8.722;2023-03-14T11:15:58;11.70;99.90
26589;DHT22;14235;48.532;8.722;2023-03-14T11:27:15;11.50;99.90
26589;DHT22;14235;48.532;8.722;2023-03-14T11:29:53;11.50;99.90
26589;DHT22;14235;48.532;8.722;2023-03-14T11:32:54;11.60;99.90
26589;DHT22;14235;48.532;8.722;2023-03-14T11:35:32;11.60;99.90
26589;DHT22;14235;48.532;8.722;2023-03-14T11:38:10;11.40;99.90
26589;DHT22;14235;48.532;8.722;2023-03-14T11:40:37;11.50;99.90
26589;DHT22;14235;48.532;8.722;2023-03-14T11:43:20;11.50;99.90
26589;DHT22;14235;48.532;8.722;2023-03-14T11:45:50;11.50;99.90
26589;DHT22;14235;48.532;8.722;2023-03-14T11:48:25;11.80;99.90
26589;DHT22;14235;48.532;8.722;2023-03-14T11:50:57;11.50;99.90
26589;DHT22;14235;48.532;8.722;2023-03-14T11:56:14;11.30;99.90
26589;DHT22;14235;48.532;8.722;2023-03-14T11:58:50;10.90;99.90
26589;DHT22;14235;48.532;8.722;2023-03-14T12:01:17;11.50;99.90
26589;DHT22;14235;48.532;8.722;2023-03-14T12:03:57;11.30;99.90
26589;DHT22;14235;48.532;8.722;2023-03-14T12:06:47;11.00;99.90
26589;DHT22;14235;48.532;8.722;2023-03-14T12:09:13;10.50;99.90
26589;DHT22;14235;48.532;8.722;2023-03-14T12:11:58;10.40;99.90
26589;DHT22;14235;48.532;8.722;2023-03-14T12:16:54;10.50;99.90
26589;DHT22;14235;48.532;8.722;2023-03-14T12:19:26;10.80;99.90
26589;DHT22;14235;48.532;8.722;2023-03-14T12:24:35;10.60;99.90
26589;DHT22;14235;48.532;8.722;2023-03-14T12:27:04;12.10;99.90
26589;DHT22;14235;48.532;8.722;2023-03-14T12:29:31;10.70;99.90
26589;DHT22;14235;48.532;8.722;2023-03-14T12:32:24;10.70;99.90
26589;DHT22;14235;48.532;8.722;2023-03-14T12:34:50;10.40;99.90
26589;DHT22;14235;48.532;8.722;2023-03-14T12:37:26;10.30;99.90
26589;DHT22;14235;48.532;8.722;2023-03-14T12:40:30;10.40;99.90
26589;DHT22;14235;48.532;8.722;2023-03-14T12:43:04;10.50;99.90
26589;DHT22;14235;48.532;8.722;2023-03-14T12:45:36;11.00;99.90
26589;DHT22;14235;48.532;8.722;2023-03-14T12:48:09;10.80;99.90
26589;DHT22;14235;48.532;8.722;2023-03-14T12:50:43;10.50;99.90
26589;DHT22;14235;48.532;8.722;2023-03-14T12:56:39;10.10;99.90
26589;DHT22;14235;48.532;8.722;2023-03-14T12:59:05;10.10;99.90
26589;DHT22;14235;48.532;8.722;2023-03-14T13:01:53;10.20;99.90
26589;DHT22;14235;48.532;8.722;2023-03-14T13:04:27;10.20;99.90
26589;DHT22;14235;48.532;8.722;2023-03-14T13:06:59;10.00;99.90
26589;DHT22;14235;48.532;8.722;2023-03-14T13:12:03;10.10;99.90
26589;DHT22;14235;48.532;8.722;2023-03-14T13:14:34;9.60;99.90
26589;DHT22;14235;48.532;8.722;2023-03-14T13:17:01;9.70;99.90
26589;DHT22;14235;48.532;8.722;2023-03-14T13:19:30;9.60;99.90
26589;DHT22;14235;48.532;8.722;2023-03-14T13:22:01;9.70;99.90
26589;DHT22;14235;48.532;8.722;2023-03-14T13:24:27;9.70;99.90
26589;DHT22;14235;48.532;8.722;2023-03-14T13:26:56;10.00;99.90
26589;DHT22;14235;48.532;8.722;2023-03-14T13:29:25;9.60;99.90
26589;DHT22;14235;48.532;8.722;2023-03-14T13:31:53;9.60;99.90
26589;DHT22;14235;48.532;8.722;2023-03-14T13:34:20;9.40;99.90
26589;DHT22;14235;48.532;8.722;2023-03-14T13:36:46;9.30;99.90
26589;DHT22;14235;48.532;8.722;2023-03-14T13:39:18;9.20;99.90
26589;DHT22;14235;48.532;8.722;2023-03-14T13:41:45;9.90;99.90
26589;DHT22;14235;48.532;8.722;2023-03-14T13:44:22;9.40;99.90
26589;DHT22;14235;48.532;8.722;2023-03-14T13:46:49;9.60;99.90
26589;DHT22;14235;48.532;8.722;2023-03-14T13:49:25;9.50;99.90
26589;DHT22;14235;48.532;8.722;2023-03-14T13:51:51;9.50;99.90
26589;DHT22;14235;48.532;8.722;2023-03-14T13:54:19;10.10;99.90
26589;DHT22;14235;48.532;8.722;2023-03-14T13:56:45;9.50;99.90
26589;DHT22;14235;48.532;8.722;2023-03-14T13:59:44;9.90;99.90
26589;DHT22;14235;48.532;8.722;2023-03-14T14:02:23;9.50;99.90
26589;DHT22;14235;48.532;8.722;2023-03-14T14:04:50;9.90;99.90
26589;DHT22;14235;48.532;8.722;2023-03-14T14:07:17;9.40;99.90
26589;DHT22;14235;48.532;8.722;2023-03-14T14:09:47;9.60;99.90
26589;DHT22;14235;48.532;8.722;2023-03-14T14:12:38;9.80;99.90
26589;DHT22;14235;48.532;8.722;2023-03-14T14:15:16;9.20;99.90
26589;DHT22;14235;48.532;8.722;2023-03-14T14:17:49;9.30;99.90
26589;DHT22;14235;48.532;8.722;2023-03-14T14:22:44;9.20;99.90
26589;DHT22;14235;48.532;8.722;2023-03-14T14:25:13;9.10;99.90
26589;DHT22;14235;48.532;8.722;2023-03-14T14:27:43;9.30;99.90
26589;DHT22;14235;48.532;8.722;2023-03-14T14:32:48;9.30;99.90
26589;DHT22;14235;48.532;8.722;2023-03-14T14:35:30;9.20;99.90
26589;DHT22;14235;48.532;8.722;2023-03-14T14:37:56;9.10;99.90
26589;DHT22;14235;48.532;8.722;2023-03-14T14:40:25;9.40;99.90
26589;DHT22;14235;48.532;8.722;2023-03-14T14:42:51;9.30;99.90
26589;DHT22;14235;48.532;8.722;2023-03-14T14:45:19;9.00;99.90
26589;DHT22;14235;48.532;8.722;2023-03-14T14:47:58;9.30;99.90
26589;DHT22;14235;48.532;8.722;2023-03-14T14:52:59;9.10;99.90
26589;DHT22;14235;48.532;8.722;2023-03-14T14:55:32;9.50;99.90
26589;DHT22;14235;48.532;8.722;2023-03-14T14:58:23;8.70;99.90
26589;DHT22;14235;48.532;8.722;2023-03-14T15:01:11;9.00;99.90
26589;DHT22;14235;48.532;8.722;2023-03-14T15:03:42;9.20;99.90
26589;DHT22;14235;48.532;8.722;2023-03-14T15:06:11;9.10;99.90
26589;DHT22;14235;48.532;8.722;2023-03-14T15:08:37;9.40;99.90
26589;DHT22;14235;48.532;8.722;2023-03-14T15:11:03;9.50;99.90
26589;DHT22;14235;48.532;8.722;2023-03-14T15:13:28;9.40;99.90
26589;DHT22;14235;48.532;8.722;2023-03-14T15:15:54;9.20;99.90
26589;DHT22;14235;48.532;8.722;2023-03-14T15:18:24;9.80;99.90
26589;DHT22;14235;48.532;8.722;2023-03-14T15:20:50;9.50;99.90
26589;DHT22;14235;48.532;8.722;2023-03-14T15:23:20;9.50;99.90
26589;DHT22;14235;48.532;8.722;2023-03-14T15:25:47;9.60;99.90
26589;DHT22;14235;48.532;8.722;2023-03-14T15:28:27;9.80;99.80
26589;DHT22;14235;48.532;8.722;2023-03-14T15:30:56;10.00;99.10
26589;DHT22;14235;48.532;8.722;2023-03-14T15:33:22;10.00;99.30
26589;DHT22;14235;48.532;8.722;2023-03-14T15:35:48;11.00;99.00
26589;DHT22;14235;48.532;8.722;2023-03-14T15:38:20;9.90;99.50
26589;DHT22;14235;48.532;8.722;2023-03-14T15:40:46;10.10;99.10
26589;DHT22;14235;48.532;8.722;2023-03-14T15:43:12;10.90;99.90
26589;DHT22;14235;48.532;8.722;2023-03-14T15:45:38;10.00;99.70
26589;DHT22;14235;48.532;8.722;2023-03-14T15:48:04;9.80;99.90
26589;DHT22;14235;48.532;8.722;2023-03-14T15:50:30;9.80;99.90
26589;DHT22;14235;48.532;8.722;2023-03-14T15:52:56;9.80;99.90
26589;DHT22;14235;48.532;8.722;2023-03-14T15:55:22;9.80;99.90
26589;DHT22;14235;48.532;8.722;2023-03-14T15:57:47;9.60;99.90
26589;DHT22;14235;48.532;8.722;2023-03-14T16:00:16;11.10;99.90
26589;DHT22;14235;48.532;8.722;2023-03-14T16:02:43;9.80;99.90
26589;DHT22;14235;48.532;8.722;2023-03-14T16:05:11;9.70;99.90
26589;DHT22;14235;48.532;8.722;2023-03-14T16:07:37;9.60;99.90
26589;DHT22;14235;48.532;8.722;2023-03-14T16:10:07;9.50;99.90
26589;DHT22;14235;48.532;8.722;2023-03-14T16:12:33;9.70;99.90
26589;DHT22;14235;48.532;8.722;2023-03-14T16:14:59;9.50;99.90
26589;DHT22;14235;48.532;8.722;2023-03-14T16:17:25;9.50;99.90
26589;DHT22;14235;48.532;8.722;2023-03-14T16:19:50;9.50;99.90
26589;DHT22;14235;48.532;8.722;2023-03-14T16:22:16;9.00;99.90
26589;DHT22;14235;48.532;8.722;2023-03-14T16:24:41;9.30;99.90
26589;DHT22;14235;48.532;8.722;2023-03-14T16:27:07;9.30;99.90
26589;DHT22;14235;48.532;8.722;2023-03-14T16:29:33;9.20;99.90
26589;DHT22;14235;48.532;8.722;2023-03-14T16:31:58;9.00;99.90
26589;DHT22;14235;48.532;8.722;2023-03-14T16:34:24;9.00;99.90